KCLL

Easterwood Field Airport

College Station, Texas, USA
METAR KCLL 221753Z 36003KT 10SM CLR 16/09 A3020 RMK AO2 SLP223 T01610089 10161 20117 58008
Observed Flight Rules
Oct-22 @ 17:53 UTC (49 minutes ago) Visual Flight Rules
Wind Visibility Clouds
360° at 3 knots 10 miles
  • Clear skies
Temperatures Readings
Current 16°C / 61°F
Dewpoint 9°C / 48°F
Humidity 63%
Altimeter 30.2" Hg
Pressure 1022.3 hPa
Elevation 96
METAR KCLL 221753Z 36003KT 10SM CLR 16/09 A3020 RMK AO2 SLP223 T01610089 10161 20117 58008
Observed Flight Rules
Oct-22 @ 17:53 UTC
(49 minutes ago)
VFR
Wind Visibility
360° at 3 knots 10 miles
Clouds
  • Clear skies
Temperature Dewpoint
16°C / 61°F 9°C / 48°F
Humidity Altimeter Pressure
63% 30.2" Hg 1022.3 hPa